Time;durP1;ratioP1;P1;durP2;ratioP2;P2;SDS_P1;SDS_P2;PMS_P1;PMS_P2;Temp;Humidity;BMP_temperature;BMP_pressure;BME280_temperature;BME280_humidity;BME280_pressure;Samples;Min_cycle;Max_cycle;Signal;HPM_P1;HPM_P2
2023/07/17 00:01:06;;;;;;;5.90;3.92;;;15.90;99.90;;;;;;6152461;23;20018;-78
2023/07/17 00:03:32;;;;;;;6.60;3.78;;;16.00;99.90;;;;;;6151739;23;20416;-78
2023/07/17 00:05:58;;;;;;;5.88;3.55;;;16.00;99.90;;;;;;6127656;23;20346;-78
2023/07/17 00:08:24;;;;;;;7.80;4.55;;;16.00;99.90;;;;;;6152098;23;20017;-77
2023/07/17 00:10:49;;;;;;;6.43;4.53;;;16.00;99.90;;;;;;6152311;23;20442;-78
2023/07/17 00:13:15;;;;;;;6.72;4.20;;;16.00;99.90;;;;;;6151907;23;20080;-77
2023/07/17 00:15:41;;;;;;;8.55;4.30;;;16.00;99.90;;;;;;6152379;23;20454;-77
2023/07/17 00:18:06;;;;;;;7.18;4.70;;;16.00;99.90;;;;;;6152309;23;20014;-77
2023/07/17 00:20:32;;;;;;;8.45;4.72;;;15.90;99.90;;;;;;6152702;23;20358;-77
2023/07/17 00:22:57;;;;;;;8.75;4.80;;;15.90;99.90;;;;;;6154303;23;20013;-78
2023/07/17 00:25:23;;;;;;;9.48;5.10;;;15.90;99.90;;;;;;6154391;23;20454;-78
2023/07/17 00:27:49;;;;;;;12.23;5.47;;;15.90;99.90;;;;;;6154743;23;20081;-78
2023/07/17 00:30:15;;;;;;;8.85;4.70;;;15.90;99.90;;;;;;6155063;23;20354;-78
2023/07/17 00:32:40;;;;;;;9.73;4.95;;;15.80;99.90;;;;;;6153932;23;20458;-78
2023/07/17 00:35:07;;;;;;;11.48;4.57;;;15.80;99.90;;;;;;6155100;23;20009;-78
2023/07/17 00:37:33;;;;;;;10.43;4.15;;;15.80;99.90;;;;;;6154747;23;20013;-78
2023/07/17 00:39:58;;;;;;;8.00;3.83;;;15.70;99.90;;;;;;6155696;23;20015;-79
2023/07/17 00:42:24;;;;;;;7.10;3.55;;;15.70;99.90;;;;;;6154436;23;20014;-78
2023/07/17 00:44:49;;;;;;;9.07;4.20;;;15.60;99.90;;;;;;6155129;23;20014;-78
2023/07/17 00:47:15;;;;;;;9.32;4.05;;;15.50;99.90;;;;;;6155686;23;20020;-78
2023/07/17 00:49:41;;;;;;;10.60;4.10;;;15.40;99.90;;;;;;6130283;23;20454;-78
2023/07/17 00:52:10;;;;;;;8.63;3.78;;;15.40;99.90;;;;;;6133556;23;20013;-78
2023/07/17 00:54:38;;;;;;;8.27;3.90;;;15.40;99.90;;;;;;6132594;23;20516;-78
2023/07/17 00:57:05;;;;;;;9.43;3.63;;;15.30;99.90;;;;;;6157433;23;20014;-78
2023/07/17 00:59:31;;;;;;;8.02;4.30;;;15.30;99.90;;;;;;6156786;23;20009;-78
2023/07/17 01:01:57;;;;;;;8.55;3.45;;;15.30;99.90;;;;;;6154796;23;20068;-78
2023/07/17 01:04:22;;;;;;;7.72;3.30;;;15.20;99.90;;;;;;6131074;23;20354;-78
2023/07/17 01:06:48;;;;;;;7.50;3.67;;;15.20;99.90;;;;;;6130064;23;20021;-78
2023/07/17 01:09:18;;;;;;;8.77;3.17;;;15.10;99.90;;;;;;6155068;23;20341;-78
2023/07/17 01:11:43;;;;;;;6.50;3.50;;;15.10;99.90;;;;;;6130200;23;20006;-78
2023/07/17 01:14:16;;;;;;;7.72;3.08;;;15.10;99.90;;;;;;6154207;23;20390;-78
2023/07/17 01:16:48;;;;;;;6.72;2.92;;;15.00;99.90;;;;;;6128963;23;20018;-77
2023/07/17 01:19:14;;;;;;;7.22;3.08;;;15.00;99.90;;;;;;6129218;23;20013;-77
2023/07/17 01:21:55;;;;;;;7.35;3.58;;;14.90;99.90;;;;;;6128327;23;20045;-77
2023/07/17 01:24:20;;;;;;;7.15;3.47;;;14.90;99.90;;;;;;6128639;23;20013;-77
2023/07/17 01:26:46;;;;;;;6.45;3.10;;;14.90;99.90;;;;;;6153492;23;20032;-77
2023/07/17 01:29:11;;;;;;;6.80;3.08;;;14.80;99.90;;;;;;6153427;23;20400;-77
2023/07/17 01:31:38;;;;;;;5.78;3.00;;;14.80;99.90;;;;;;6152919;23;20440;-77
2023/07/17 01:34:04;;;;;;;7.10;3.08;;;14.70;99.90;;;;;;6129136;23;20017;-77
2023/07/17 01:36:29;;;;;;;7.97;3.22;;;14.80;99.90;;;;;;6153476;23;20005;-77
2023/07/17 01:38:56;;;;;;;7.45;3.10;;;14.80;99.90;;;;;;6154070;23;20067;-77
2023/07/17 01:41:23;;;;;;;9.65;3.92;;;14.80;99.90;;;;;;6152823;23;20063;-77
2023/07/17 01:43:48;;;;;;;8.18;3.60;;;14.80;99.90;;;;;;6128089;23;20331;-77
2023/07/17 01:46:14;;;;;;;8.98;3.60;;;14.80;99.90;;;;;;6153310;23;20029;-77
2023/07/17 01:48:40;;;;;;;7.65;3.50;;;14.70;99.90;;;;;;6128835;23;20016;-77
2023/07/17 01:51:06;;;;;;;8.15;3.28;;;14.70;99.90;;;;;;6152294;23;20052;-77
2023/07/17 01:53:32;;;;;;;7.95;3.30;;;14.80;99.90;;;;;;6152975;23;20014;-77
2023/07/17 01:55:59;;;;;;;7.75;3.47;;;14.70;99.90;;;;;;6153292;23;20013;-77
2023/07/17 01:58:25;;;;;;;9.60;3.78;;;14.70;99.90;;;;;;6153114;23;20009;-77
2023/07/17 02:00:57;;;;;;;8.15;3.45;;;14.80;99.90;;;;;;6152622;23;20012;-77
2023/07/17 02:03:23;;;;;;;9.75;3.63;;;14.80;99.90;;;;;;6152938;23;20140;-77
2023/07/17 02:05:51;;;;;;;8.73;3.78;;;14.80;99.90;;;;;;6153164;23;20450;-77
2023/07/17 02:08:17;;;;;;;8.07;3.85;;;14.80;99.90;;;;;;6152643;23;20010;-77
2023/07/17 02:10:44;;;;;;;10.77;4.22;;;14.80;99.90;;;;;;6152940;23;20092;-77
2023/07/17 02:13:09;;;;;;;9.27;4.03;;;14.80;99.90;;;;;;6152467;23;20041;-77
2023/07/17 02:15:35;;;;;;;7.57;3.92;;;14.70;99.90;;;;;;6152787;23;20374;-77
2023/07/17 02:18:01;;;;;;;9.48;4.35;;;14.60;99.90;;;;;;6128438;23;20450;-78
2023/07/17 02:20:27;;;;;;;9.40;4.20;;;14.60;99.90;;;;;;6128348;23;20020;-77
2023/07/17 02:22:53;;;;;;;10.13;4.30;;;14.60;99.90;;;;;;6152709;23;20020;-77
2023/07/17 02:25:19;;;;;;;9.27;4.30;;;14.50;99.90;;;;;;6128677;23;20053;-77
2023/07/17 02:27:44;;;;;;;9.88;4.15;;;14.50;99.90;;;;;;6152412;23;20088;-77
2023/07/17 02:30:10;;;;;;;10.48;4.70;;;14.50;99.90;;;;;;6128089;23;20014;-77
2023/07/17 02:32:36;;;;;;;11.75;4.60;;;14.50;99.90;;;;;;6152407;23;20013;-77
2023/07/17 02:35:02;;;;;;;12.48;4.90;;;14.40;99.90;;;;;;6153072;23;20020;-77
2023/07/17 02:37:28;;;;;;;10.70;4.53;;;14.40;99.90;;;;;;6128058;23;20013;-77
2023/07/17 02:39:54;;;;;;;10.70;4.45;;;14.40;99.90;;;;;;6152212;23;20052;-77
2023/07/17 02:42:20;;;;;;;10.00;4.60;;;14.40;99.90;;;;;;6152600;23;20014;-77
2023/07/17 02:44:46;;;;;;;12.00;4.63;;;14.40;99.90;;;;;;6152636;23;20045;-78
2023/07/17 02:47:12;;;;;;;10.20;4.60;;;14.40;99.90;;;;;;6152875;23;20018;-77
2023/07/17 02:49:38;;;;;;;12.13;4.88;;;14.40;99.90;;;;;;6153101;23;20481;-78
2023/07/17 02:52:05;;;;;;;11.32;4.90;;;14.40;99.90;;;;;;6152667;23;20470;-78
2023/07/17 02:54:31;;;;;;;12.77;4.93;;;14.50;99.90;;;;;;6153056;23;20006;-77
2023/07/17 02:56:56;;;;;;;11.02;4.70;;;14.40;99.90;;;;;;6128346;23;20095;-78
2023/07/17 02:59:22;;;;;;;10.95;4.63;;;14.40;99.90;;;;;;6129083;23;20016;-78
2023/07/17 03:01:48;;;;;;;12.20;4.55;;;14.40;99.90;;;;;;6127846;23;20030;-77
2023/07/17 03:04:14;;;;;;;9.40;4.38;;;14.40;99.90;;;;;;6128257;23;20092;-77
2023/07/17 03:06:40;;;;;;;10.43;4.50;;;14.30;99.90;;;;;;6152618;23;20013;-78
2023/07/17 03:09:05;;;;;;;10.57;4.82;;;14.30;99.90;;;;;;6152861;23;20064;-77
2023/07/17 03:11:31;;;;;;;11.15;4.82;;;14.30;99.90;;;;;;6127854;23;20454;-77
2023/07/17 03:13:57;;;;;;;11.80;4.70;;;14.30;99.90;;;;;;6127942;23;20009;-77
2023/07/17 03:16:23;;;;;;;9.63;5.22;;;14.20;99.90;;;;;;6152816;23;20013;-78
2023/07/17 03:18:48;;;;;;;11.55;4.07;;;14.20;99.90;;;;;;6152914;23;20045;-77
2023/07/17 03:21:14;;;;;;;10.45;5.07;;;14.20;99.90;;;;;;6152328;23;20414;-77
2023/07/17 03:23:39;;;;;;;10.63;5.03;;;14.20;99.90;;;;;;6152742;23;20093;-77
2023/07/17 03:26:05;;;;;;;13.05;5.28;;;14.20;99.90;;;;;;6152641;23;20101;-77
2023/07/17 03:28:30;;;;;;;13.07;5.28;;;14.10;99.90;;;;;;6152509;23;20014;-77
2023/07/17 03:30:56;;;;;;;9.07;4.35;;;14.10;99.90;;;;;;6127269;23;20010;-77
2023/07/17 03:33:22;;;;;;;11.65;4.88;;;14.10;99.90;;;;;;6152831;23;20005;-77
2023/07/17 03:35:47;;;;;;;10.77;5.45;;;14.10;99.90;;;;;;6152415;23;20438;-77
2023/07/17 03:38:13;;;;;;;11.82;5.30;;;14.10;99.90;;;;;;6127702;23;20229;-77
2023/07/17 03:40:38;;;;;;;10.63;4.40;;;14.10;99.90;;;;;;6152476;23;20013;-78
2023/07/17 03:43:04;;;;;;;9.73;4.25;;;14.10;99.90;;;;;;6152981;23;20025;-77
2023/07/17 03:45:29;;;;;;;11.23;4.70;;;14.00;99.90;;;;;;6128094;23;20014;-77
2023/07/17 03:47:55;;;;;;;11.65;4.60;;;14.00;99.90;;;;;;6127516;23;20009;-77
2023/07/17 03:50:21;;;;;;;11.48;5.10;;;14.10;99.90;;;;;;6127625;23;20067;-77
2023/07/17 03:52:46;;;;;;;13.10;4.97;;;14.00;99.90;;;;;;6128066;23;20086;-77
2023/07/17 03:55:12;;;;;;;11.90;5.28;;;14.10;99.90;;;;;;6103767;23;20064;-77
2023/07/17 03:57:37;;;;;;;9.65;5.00;;;14.10;99.90;;;;;;6127284;23;20009;-77
2023/07/17 04:00:04;;;;;;;10.43;5.20;;;14.10;99.90;;;;;;6103440;23;20524;-77
2023/07/17 04:02:30;;;;;;;10.70;5.38;;;14.10;99.90;;;;;;6127552;23;20017;-77
2023/07/17 04:04:56;;;;;;;10.10;4.75;;;14.20;99.90;;;;;;6127787;23;20020;-77
2023/07/17 04:07:21;;;;;;;9.98;4.72;;;14.10;99.90;;;;;;6126866;23;20358;-77
2023/07/17 04:09:47;;;;;;;9.65;4.85;;;14.20;99.90;;;;;;6127932;23;20019;-77
2023/07/17 04:12:13;;;;;;;12.60;5.18;;;14.20;99.90;;;;;;6127864;23;20041;-77
2023/07/17 04:14:38;;;;;;;9.43;4.10;;;14.30;99.90;;;;;;6127840;23;20014;-77
2023/07/17 04:17:04;;;;;;;9.52;4.63;;;14.30;99.90;;;;;;6127288;23;20068;-77
2023/07/17 04:19:30;;;;;;;13.23;4.70;;;14.30;99.90;;;;;;6103320;23;20384;-77
2023/07/17 04:21:56;;;;;;;12.25;4.70;;;14.30;99.90;;;;;;6127188;23;20018;-77
2023/07/17 04:24:25;;;;;;;9.70;4.85;;;14.40;99.90;;;;;;6127953;23;20017;-77
2023/07/17 04:26:52;;;;;;;9.73;4.60;;;14.40;99.90;;;;;;6129439;23;20020;-78
2023/07/17 04:29:22;;;;;;;9.82;4.25;;;14.50;99.90;;;;;;6129788;23;20021;-78
2023/07/17 04:31:48;;;;;;;8.45;4.43;;;14.50;99.90;;;;;;6129816;23;20010;-78
2023/07/17 04:34:13;;;;;;;9.98;4.93;;;14.60;99.90;;;;;;6129054;23;20067;-78
2023/07/17 04:36:40;;;;;;;9.77;4.47;;;14.60;99.90;;;;;;6105223;23;20017;-78
2023/07/17 04:39:05;;;;;;;9.75;4.72;;;14.70;99.90;;;;;;6128912;23;20018;-78
2023/07/17 04:41:31;;;;;;;11.98;4.80;;;14.80;99.90;;;;;;6105356;23;20017;-77
2023/07/17 04:43:57;;;;;;;8.80;4.55;;;14.90;99.90;;;;;;6139336;23;20020;-77
2023/07/17 04:46:23;;;;;;;9.60;4.38;;;14.90;99.90;;;;;;6153608;23;20014;-77
2023/07/17 04:48:49;;;;;;;9.48;4.70;;;15.10;99.90;;;;;;6129077;23;20013;-77
2023/07/17 04:51:14;;;;;;;9.32;4.45;;;15.30;99.90;;;;;;6154203;23;20056;-77
2023/07/17 04:53:40;;;;;;;9.10;4.45;;;15.50;99.90;;;;;;6129473;23;20005;-77
2023/07/17 04:56:06;;;;;;;7.68;4.22;;;15.80;99.90;;;;;;6128946;23;20006;-77
2023/07/17 04:58:34;;;;;;;8.57;4.45;;;16.20;99.90;;;;;;6128733;23;20045;-77
2023/07/17 05:01:01;;;;;;;8.35;4.10;;;16.50;99.90;;;;;;6153190;23;20084;-77
2023/07/17 05:03:27;;;;;;;9.18;4.28;;;17.00;99.90;;;;;;6152862;23;20488;-78
2023/07/17 05:05:54;;;;;;;7.40;4.40;;;17.40;99.90;;;;;;6128806;23;20453;-78
2023/07/17 05:08:20;;;;;;;8.80;4.50;;;17.80;99.90;;;;;;6153397;23;20009;-78
2023/07/17 05:11:02;;;;;;;9.23;4.60;;;18.20;99.90;;;;;;6153821;23;20024;-78
2023/07/17 05:13:28;;;;;;;11.15;4.18;;;18.60;99.90;;;;;;6128356;23;20045;-77
2023/07/17 05:15:54;;;;;;;10.65;4.05;;;18.90;99.90;;;;;;6152770;23;20045;-77
2023/07/17 05:18:20;;;;;;;10.95;4.50;;;19.10;99.90;;;;;;6129500;23;20010;-78
2023/07/17 05:20:47;;;;;;;9.38;4.00;;;19.40;99.90;;;;;;6128763;23;20013;-78
2023/07/17 05:23:13;;;;;;;6.20;3.85;;;19.60;99.90;;;;;;6152385;23;20388;-78
2023/07/17 05:25:38;;;;;;;10.25;4.32;;;19.90;99.90;;;;;;6154377;23;20021;-78
2023/07/17 05:28:04;;;;;;;7.47;4.00;;;20.10;99.90;;;;;;6153478;23;20009;-78
2023/07/17 05:30:33;;;;;;;10.23;4.88;;;20.30;99.90;;;;;;6153279;23;20009;-79
2023/07/17 05:32:59;;;;;;;9.43;4.50;;;20.70;99.90;;;;;;6153632;23;20057;-79
2023/07/17 05:35:24;;;;;;;11.00;4.65;;;20.90;99.90;;;;;;6152624;23;20010;-78
2023/07/17 05:37:50;;;;;;;7.70;4.07;;;20.90;99.90;;;;;;6153825;23;20014;-76
2023/07/17 05:40:16;;;;;;;9.13;4.50;;;20.80;99.90;;;;;;6153210;23;20014;-77
2023/07/17 05:42:42;;;;;;;9.30;4.60;;;20.80;99.90;;;;;;6152362;23;20540;-77
2023/07/17 05:45:08;;;;;;;8.52;4.53;;;20.80;99.90;;;;;;6153623;23;20080;-77
2023/07/17 05:47:34;;;;;;;10.80;4.63;;;20.70;99.90;;;;;;6152595;23;20017;-77
2023/07/17 05:49:59;;;;;;;8.63;4.32;;;20.70;99.90;;;;;;6153573;23;20084;-77
2023/07/17 05:52:25;;;;;;;10.70;4.82;;;20.70;99.90;;;;;;6129215;23;20013;-77
2023/07/17 05:54:51;;;;;;;10.27;5.03;;;20.80;99.90;;;;;;6177578;23;20021;-77
2023/07/17 05:57:16;;;;;;;10.77;4.60;;;20.70;99.90;;;;;;6182442;23;20024;-77
2023/07/17 05:59:42;;;;;;;11.02;4.88;;;20.60;99.90;;;;;;6183263;23;20468;-77
2023/07/17 06:02:07;;;;;;;10.23;5.18;;;20.20;99.90;;;;;;6181327;23;20009;-76
2023/07/17 06:04:33;;;;;;;14.57;5.00;;;19.60;99.90;;;;;;6133809;23;20017;-77
2023/07/17 06:06:59;;;;;;;10.02;4.93;;;19.30;99.90;;;;;;6165199;23;20044;-82
2023/07/17 06:09:24;;;;;;;10.55;5.45;;;18.90;99.90;;;;;;6157366;23;20017;-81
2023/07/17 06:11:50;;;;;;;10.25;5.50;;;18.70;99.90;;;;;;6156772;23;20017;-81
2023/07/17 06:14:15;;;;;;;9.52;5.43;;;18.40;99.90;;;;;;6182012;23;20013;-81
2023/07/17 06:16:41;;;;;;;11.80;6.38;;;18.30;99.90;;;;;;6146941;23;20338;-84
2023/07/17 06:19:06;;;;;;;12.88;6.75;;;18.10;99.90;;;;;;6153367;23;20018;-84
2023/07/17 06:21:33;;;;;;;12.23;6.47;;;18.10;99.90;;;;;;6151806;23;20013;-83
2023/07/17 06:23:58;;;;;;;13.88;7.18;;;18.00;99.90;;;;;;6153114;23;20013;-84
2023/07/17 06:26:24;;;;;;;12.93;6.90;;;17.90;99.90;;;;;;6153017;23;20019;-84
2023/07/17 06:28:50;;;;;;;12.93;6.63;;;17.90;99.90;;;;;;6153370;23;20064;-84
2023/07/17 06:31:16;;;;;;;12.10;6.97;;;17.90;99.90;;;;;;6153480;23;20006;-83
2023/07/17 06:33:41;;;;;;;12.05;6.75;;;17.90;99.90;;;;;;6129344;23;20006;-84
2023/07/17 06:36:07;;;;;;;12.18;7.13;;;17.80;99.90;;;;;;6128664;23;20037;-84
2023/07/17 06:38:32;;;;;;;14.15;7.60;;;17.70;99.90;;;;;;6153447;23;20089;-84
2023/07/17 06:40:58;;;;;;;15.02;7.53;;;17.70;99.90;;;;;;6129126;23;20304;-84
2023/07/17 06:43:24;;;;;;;15.00;7.88;;;17.80;99.90;;;;;;6128808;23;20013;-84
2023/07/17 06:45:49;;;;;;;13.98;7.93;;;17.90;99.90;;;;;;6152980;23;20017;-85
2023/07/17 06:48:15;;;;;;;13.63;7.60;;;18.00;99.90;;;;;;6128389;23;20342;-84
2023/07/17 06:50:40;;;;;;;14.27;7.35;;;17.90;99.90;;;;;;6128812;23;20466;-84
2023/07/17 06:53:06;;;;;;;14.40;7.85;;;18.00;99.90;;;;;;6153338;23;20010;-83
2023/07/17 06:55:32;;;;;;;12.45;7.47;;;18.00;99.90;;;;;;6153472;23;20353;-84
2023/07/17 06:57:58;;;;;;;11.60;7.55;;;18.10;99.90;;;;;;6128326;23;20064;-84
2023/07/17 07:00:23;;;;;;;13.13;8.07;;;18.10;99.90;;;;;;6153161;23;20049;-85
2023/07/17 07:02:49;;;;;;;12.25;8.18;;;18.00;99.90;;;;;;6153167;23;20041;-84
2023/07/17 07:05:14;;;;;;;15.38;8.35;;;17.90;99.90;;;;;;6128678;23;20353;-82
2023/07/17 07:07:40;;;;;;;14.98;8.20;;;17.90;99.90;;;;;;6152760;23;20013;-84
2023/07/17 07:10:06;;;;;;;15.38;7.95;;;17.80;99.90;;;;;;6152953;23;20013;-84
2023/07/17 07:12:32;;;;;;;13.20;7.45;;;17.90;99.90;;;;;;6127709;23;20024;-85
2023/07/17 07:14:58;;;;;;;12.48;7.53;;;17.90;99.90;;;;;;6153083;23;20005;-84
2023/07/17 07:17:23;;;;;;;14.07;8.10;;;17.90;99.90;;;;;;6152762;23;20099;-84
2023/07/17 07:19:51;;;;;;;12.32;7.57;;;18.10;99.90;;;;;;6128650;23;20020;-84
2023/07/17 07:22:16;;;;;;;12.20;7.38;;;18.00;99.90;;;;;;6128832;23;20017;-84
2023/07/17 07:24:45;;;;;;;13.38;8.38;;;18.00;99.90;;;;;;6152973;23;20014;-84
2023/07/17 07:27:10;;;;;;;12.75;7.40;;;18.00;99.90;;;;;;6152655;23;20045;-84
2023/07/17 07:29:36;;;;;;;15.45;8.20;;;18.10;99.90;;;;;;6128436;23;20062;-84
2023/07/17 07:32:02;;;;;;;12.40;7.95;;;18.10;99.90;;;;;;6128425;23;20010;-84
2023/07/17 07:34:28;;;;;;;15.05;7.95;;;18.20;99.90;;;;;;6152916;23;20024;-84
2023/07/17 07:36:53;;;;;;;13.40;7.68;;;18.20;99.90;;;;;;6152664;23;20009;-84
2023/07/17 07:39:19;;;;;;;13.05;7.50;;;18.40;99.90;;;;;;6152778;23;20013;-84
2023/07/17 07:41:45;;;;;;;12.25;7.20;;;18.50;99.90;;;;;;6128327;23;20017;-84
2023/07/17 07:44:11;;;;;;;13.80;7.57;;;18.60;99.90;;;;;;6152956;23;20018;-85
2023/07/17 07:46:36;;;;;;;13.23;7.13;;;18.70;99.90;;;;;;6128016;23;20013;-84
2023/07/17 07:49:03;;;;;;;12.07;8.05;;;18.90;99.90;;;;;;6128185;23;20013;-84
2023/07/17 07:51:28;;;;;;;12.02;7.20;;;19.10;99.90;;;;;;6152716;23;20110;-84
2023/07/17 07:53:54;;;;;;;16.92;7.85;;;19.30;99.90;;;;;;6128091;23;20026;-84
2023/07/17 07:56:20;;;;;;;12.63;7.25;;;19.50;99.90;;;;;;6127830;23;20465;-85
2023/07/17 07:58:45;;;;;;;12.57;7.15;;;20.00;99.90;;;;;;6153451;23;20051;-84
2023/07/17 08:01:11;;;;;;;12.85;7.53;;;20.50;99.90;;;;;;6130310;23;20010;-84
2023/07/17 08:03:38;;;;;;;10.20;6.90;;;20.70;99.90;;;;;;6130327;23;20085;-84
2023/07/17 08:06:03;;;;;;;12.50;6.95;;;20.60;99.90;;;;;;6129844;23;20080;-84
2023/07/17 08:08:29;;;;;;;13.23;7.43;;;20.80;99.90;;;;;;6130285;23;20394;-84
2023/07/17 08:10:55;;;;;;;13.50;6.55;;;21.40;99.90;;;;;;6130172;23;20017;-85
2023/07/17 08:13:21;;;;;;;11.02;6.53;;;21.90;99.90;;;;;;6105877;23;20014;-84
2023/07/17 08:15:47;;;;;;;11.05;6.03;;;22.10;99.90;;;;;;6130211;23;20014;-83
2023/07/17 08:18:13;;;;;;;10.55;5.85;;;22.40;99.90;;;;;;6105760;23;20056;-84
2023/07/17 08:20:38;;;;;;;10.70;6.32;;;22.30;99.90;;;;;;6130221;23;20060;-85
2023/07/17 08:23:05;;;;;;;12.43;6.47;;;22.20;99.90;;;;;;6105641;23;20141;-83
2023/07/17 08:25:31;;;;;;;9.18;5.95;;;22.30;99.90;;;;;;6130641;23;20037;-84
2023/07/17 08:27:56;;;;;;;8.73;5.97;;;22.70;99.90;;;;;;6105440;23;20024;-84
2023/07/17 08:30:22;;;;;;;11.98;6.28;;;23.20;99.90;;;;;;6129926;23;20013;-84
2023/07/17 08:32:48;;;;;;;10.55;5.32;;;23.40;99.90;;;;;;6105725;23;20327;-84
2023/07/17 08:35:13;;;;;;;10.68;5.95;;;23.40;99.90;;;;;;6130048;23;20383;-84
2023/07/17 08:37:39;;;;;;;10.27;5.90;;;23.60;99.90;;;;;;6129525;23;20014;-84
2023/07/17 08:40:05;;;;;;;9.68;5.57;;;23.90;99.90;;;;;;6129887;23;20072;-85
2023/07/17 08:42:33;;;;;;;11.10;5.88;;;24.20;99.90;;;;;;6129806;23;20450;-84
2023/07/17 08:44:59;;;;;;;8.57;5.47;;;24.60;99.90;;;;;;6129996;23;20013;-82
2023/07/17 08:47:25;;;;;;;9.90;5.18;;;24.80;99.90;;;;;;6129517;23;20017;-82
2023/07/17 08:49:51;;;;;;;10.02;5.68;;;24.60;99.90;;;;;;6130043;23;20013;-82
2023/07/17 08:52:18;;;;;;;12.55;5.90;;;24.20;99.90;;;;;;6130135;23;20020;-82
2023/07/17 08:54:44;;;;;;;15.23;6.47;;;23.70;99.90;;;;;;6129844;23;20045;-82
2023/07/17 08:57:11;;;;;;;12.32;6.05;;;23.00;99.90;;;;;;6105247;23;20009;-82
2023/07/17 08:59:37;;;;;;;10.90;6.50;;;22.40;99.90;;;;;;6129974;23;20062;-82
2023/07/17 09:02:04;;;;;;;11.30;7.15;;;21.60;99.90;;;;;;6130522;23;20436;-81
2023/07/17 09:04:34;;;;;;;11.00;6.78;;;21.20;99.90;;;;;;6129899;23;20414;-81
2023/07/17 09:07:00;;;;;;;13.10;7.13;;;21.20;99.90;;;;;;6113406;23;20013;-82
2023/07/17 09:09:25;;;;;;;11.68;6.22;;;21.60;99.90;;;;;;6154294;23;20044;-82
2023/07/17 09:12:11;;;;;;;10.85;6.07;;;22.40;99.90;;;;;;6153989;23;20009;-82
2023/07/17 09:14:37;;;;;;;8.93;5.55;;;22.60;99.90;;;;;;6154191;23;20013;-81
2023/07/17 09:17:07;;;;;;;9.90;5.97;;;22.40;99.90;;;;;;6154249;23;20017;-81
2023/07/17 09:19:34;;;;;;;11.68;5.93;;;22.20;99.90;;;;;;6154171;23;20064;-81
2023/07/17 09:22:02;;;;;;;7.50;5.55;;;22.20;99.90;;;;;;6129636;23;20024;-82
2023/07/17 09:24:28;;;;;;;9.48;5.50;;;22.20;99.90;;;;;;6154458;23;20068;-82
2023/07/17 09:26:57;;;;;;;9.15;5.25;;;22.20;99.90;;;;;;6154199;23;20390;-82
2023/07/17 09:29:24;;;;;;;10.13;5.20;;;22.00;99.90;;;;;;6129648;23;20018;-81
2023/07/17 09:31:50;;;;;;;11.43;5.70;;;22.00;99.90;;;;;;6154490;23;20462;-81
2023/07/17 09:34:16;;;;;;;9.45;5.20;;;22.50;99.90;;;;;;6154272;23;20010;-81
2023/07/17 09:36:42;;;;;;;10.82;5.25;;;23.20;99.90;;;;;;6153957;23;20009;-82
2023/07/17 09:39:10;;;;;;;8.95;4.60;;;23.80;99.90;;;;;;6154009;23;20350;-81
2023/07/17 09:41:35;;;;;;;8.30;4.10;;;24.30;99.90;;;;;;6129439;23;20024;-82
2023/07/17 09:44:06;;;;;;;8.02;4.25;;;24.50;99.90;;;;;;6129665;23;20014;-82
2023/07/17 09:46:37;;;;;;;8.52;3.90;;;24.50;99.90;;;;;;6153461;23;20044;-82
2023/07/17 09:49:04;;;;;;;7.55;3.35;;;24.50;99.90;;;;;;6129350;23;20014;-82
2023/07/17 09:51:30;;;;;;;7.68;3.85;;;24.70;99.90;;;;;;6153899;23;20012;-81
2023/07/17 09:53:58;;;;;;;5.53;3.42;;;24.90;99.90;;;;;;6129415;23;20016;-82
2023/07/17 09:56:27;;;;;;;7.88;3.60;;;24.80;99.90;;;;;;6153445;23;20441;-82
2023/07/17 09:58:57;;;;;;;7.05;3.65;;;24.60;99.90;;;;;;6129076;23;20323;-82
2023/07/17 10:01:25;;;;;;;6.43;3.70;;;24.30;99.90;;;;;;6154237;23;20330;-82
2023/07/17 10:03:50;;;;;;;8.20;4.10;;;23.80;99.90;;;;;;6154412;23;20076;-82
2023/07/17 10:06:20;;;;;;;8.10;3.90;;;23.30;99.90;;;;;;6153437;23;20446;-82
2023/07/17 10:08:52;;;;;;;7.82;4.15;;;23.00;99.90;;;;;;6104639;23;20014;-82
2023/07/17 10:11:18;;;;;;;7.70;3.80;;;22.60;99.90;;;;;;6129144;23;20020;-82
2023/07/17 10:13:46;;;;;;;6.93;3.70;;;22.50;99.90;;;;;;6129034;23;20018;-82
2023/07/17 10:16:14;;;;;;;7.03;3.42;;;22.70;99.90;;;;;;6128968;23;20036;-82
2023/07/17 10:18:53;;;;;;;6.28;3.58;;;23.10;99.90;;;;;;6104932;23;20103;-82
2023/07/17 10:21:20;;;;;;;5.85;3.35;;;23.60;99.90;;;;;;6104347;23;20386;-82
2023/07/17 10:23:48;;;;;;;6.18;3.35;;;24.00;99.90;;;;;;6128472;23;20496;-81
2023/07/17 10:26:16;;;;;;;5.68;3.28;;;24.50;99.90;;;;;;6128454;23;20052;-83
2023/07/17 10:28:47;;;;;;;6.88;3.60;;;25.10;99.90;;;;;;6130309;23;20010;-83
2023/07/17 10:31:18;;;;;;;7.18;3.50;;;25.70;98.30;;;;;;6106978;23;20018;-83
2023/07/17 10:33:48;;;;;;;6.38;3.25;;;26.00;94.80;;;;;;6128988;23;20014;-82
2023/07/17 10:36:15;;;;;;;6.18;3.63;;;26.40;99.90;;;;;;6128876;23;20064;-82
2023/07/17 10:38:42;;;;;;;6.65;3.30;;;26.70;87.50;;;;;;6128818;23;20020;-82
2023/07/17 10:41:13;;;;;;;6.80;3.30;;;26.80;80.20;;;;;;6128701;23;20013;-82
2023/07/17 10:44:01;;;;;;;6.35;3.10;;;26.70;75.40;;;;;;6128814;23;20080;-81
2023/07/17 10:46:32;;;;;;;5.30;2.80;;;26.60;71.70;;;;;;6128416;23;20020;-82
2023/07/17 10:49:08;;;;;;;5.22;2.80;;;26.70;74.20;;;;;;6128397;23;20097;-83
2023/07/17 10:51:36;;;;;;;6.38;3.03;;;26.90;77.40;;;;;;6128670;23;20018;-83
2023/07/17 10:54:01;;;;;;;5.72;2.53;;;27.30;75.50;;;;;;6128660;23;20100;-82
2023/07/17 10:56:31;;;;;;;6.78;3.13;;;27.30;66.80;;;;;;6128680;23;20045;-83
2023/07/17 10:58:57;;;;;;;4.65;2.70;;;27.10;67.50;;;;;;6128623;23;20010;-83
2023/07/17 11:01:22;;;;;;;6.88;3.10;;;27.20;71.00;;;;;;6128636;23;20088;-81
2023/07/17 11:03:49;;;;;;;5.55;2.75;;;27.40;68.00;;;;;;6104444;23;20005;-82
2023/07/17 11:06:16;;;;;;;4.75;2.65;;;27.50;69.30;;;;;;6128048;23;20402;-82
2023/07/17 11:08:49;;;;;;;4.68;2.40;;;27.80;67.70;;;;;;6104171;23;20048;-82
2023/07/17 11:11:15;;;;;;;5.05;2.22;;;28.10;65.30;;;;;;6128442;23;20017;-82
2023/07/17 11:13:48;;;;;;;3.67;2.08;;;28.20;63.00;;;;;;6128378;23;20017;-82
2023/07/17 11:16:13;;;;;;;4.88;1.98;;;28.30;63.00;;;;;;6103620;23;20006;-82
2023/07/17 11:18:47;;;;;;;4.80;2.00;;;28.30;60.60;;;;;;6128516;23;20056;-83
2023/07/17 11:21:18;;;;;;;4.82;2.10;;;28.50;59.80;;;;;;6128378;23;20016;-83
2023/07/17 11:23:55;;;;;;;4.53;2.20;;;28.50;60.70;;;;;;6104034;23;20083;-82
2023/07/17 11:26:29;;;;;;;4.45;1.77;;;28.70;62.30;;;;;;6128085;23;20018;-82
2023/07/17 11:28:59;;;;;;;4.90;1.95;;;28.70;58.60;;;;;;6128078;23;20024;-82
2023/07/17 11:31:34;;;;;;;3.25;1.98;;;28.40;59.70;;;;;;6128503;23;20048;-82
2023/07/17 11:34:09;;;;;;;7.90;2.58;;;28.40;63.30;;;;;;6128311;23;20009;-82
2023/07/17 11:36:46;;;;;;;4.90;2.05;;;28.60;60.30;;;;;;6128131;23;20010;-82
2023/07/17 11:39:14;;;;;;;3.35;1.98;;;28.70;59.80;;;;;;6128594;23;20013;-82
2023/07/17 11:41:49;;;;;;;4.95;1.92;;;28.70;61.00;;;;;;6103883;23;20024;-83
2023/07/17 11:44:29;;;;;;;3.65;1.85;;;28.80;58.90;;;;;;6128217;23;20014;-82
2023/07/17 11:47:06;;;;;;;4.40;2.00;;;28.80;60.70;;;;;;6127989;23;20052;-82
2023/07/17 11:49:34;;;;;;;5.07;2.10;;;28.80;59.90;;;;;;6127854;23;20018;-82
2023/07/17 11:52:00;;;;;;;4.18;2.03;;;28.70;58.20;;;;;;6128201;23;20041;-82
2023/07/17 11:54:44;;;;;;;5.93;2.42;;;28.10;58.80;;;;;;6128311;23;20010;-82
2023/07/17 11:57:10;;;;;;;5.95;2.60;;;27.30;58.90;;;;;;6128020;23;20442;-82
2023/07/17 11:59:36;;;;;;;5.00;2.13;;;26.30;60.90;;;;;;6128060;23;20013;-82
2023/07/17 12:02:02;;;;;;;4.65;2.53;;;25.50;62.90;;;;;;6103775;23;20354;-82
2023/07/17 12:04:33;;;;;;;6.43;2.58;;;24.80;64.20;;;;;;6128435;23;20020;-82
2023/07/17 12:07:00;;;;;;;5.80;2.58;;;23.90;65.30;;;;;;6136895;23;20014;-81
2023/07/17 12:09:26;;;;;;;6.47;2.92;;;23.30;69.30;;;;;;6152546;23;20381;-82
2023/07/17 12:11:52;;;;;;;6.97;3.20;;;22.50;96.50;;;;;;6152713;23;20068;-81
2023/07/17 12:14:18;;;;;;;6.43;3.25;;;21.70;99.90;;;;;;6128323;23;20016;-82
2023/07/17 12:16:45;;;;;;;6.20;2.85;;;21.10;99.90;;;;;;6152478;23;20021;-82
2023/07/17 12:19:11;;;;;;;6.47;2.85;;;20.60;99.90;;;;;;6152603;23;20508;-81
2023/07/17 12:21:37;;;;;;;5.38;2.80;;;20.10;99.90;;;;;;6152862;23;20018;-84
2023/07/17 12:24:03;;;;;;;6.70;3.83;;;19.90;99.90;;;;;;6152543;23;20350;-83
2023/07/17 12:26:28;;;;;;;6.00;3.05;;;19.90;99.90;;;;;;6127679;23;20013;-83
2023/07/17 12:28:54;;;;;;;5.18;3.08;;;20.10;99.90;;;;;;6127889;23;20017;-83
2023/07/17 12:31:20;;;;;;;4.30;2.47;;;20.20;99.90;;;;;;6128360;23;20509;-84
2023/07/17 12:33:45;;;;;;;6.45;2.70;;;20.10;99.90;;;;;;6152493;23;20088;-83
2023/07/17 12:36:11;;;;;;;4.70;2.15;;;20.10;99.90;;;;;;6152201;23;20045;-84
2023/07/17 12:38:37;;;;;;;3.17;2.03;;;20.00;99.90;;;;;;6152474;23;20013;-84
2023/07/17 12:41:02;;;;;;;5.35;3.00;;;19.80;99.90;;;;;;6152861;23;20052;-84